Independence, Missouri
Current Conditions -  °F | °C
As of 3:53 PM on Thursday 18 Dec 2014 (Local Time) from KLXT Reporting Station
Overcast Overcast  
Wind Chill: 27°   Ceiling: 700
Heat Index: 32°   Visibility: 7mi
Dew Point: 29°   Wind: 5mph
Humidity: 88%   Direction: 30°NNE
Pressure: 30.2"   Gusts: NA
Location:  39.09°N, 94.41°W
Report Text: KLXT 182153Z AUTO 03004KT 7SM OVC007 00/M02 A3020 RMK AO2 SLP238 T00001017 TSNO
Loading
Personal Weather Stations






























Interactive Weather Map New forecast layout! Learn more

10-Day Weather Forecast

Advertisements
Track Severe Weather on mobile